Terminal Aerodrome Forecast
Issued by NWS Blacksburg, VA

Home | Current Version | Previous Version | Text Only | Print | Product List | Glossary On
Versions: 1 2 3 4 5 6 7 8 9 10 11 12 13 14 15 16 17 18 19 20 21 22 23 24 25
626
FTUS41 KRNK 101126
TAFLYH
TAF
KLYH 101126Z 1012/1112 27007KT P6SM BKN090
      TEMPO 1013/1015 -SN BKN030
     FM101600 28009G18KT P6SM SCT040 BKN080
     FM110100 28008KT P6SM SCT080
     FM110600 26006KT P6SM BKN250=

USA.gov is the U.S. government's official web portal to all federal, state and local government web resources and services.